sensor_id;sensor_type;location;lat;lon;timestamp;pressure;altitude;pressure_sealevel;temperature;humidity
64679;BME280;51094;53.864;27.676;2022-12-18T00:02:10;99714.81;;;-5.26;75.12
64679;BME280;51094;53.864;27.676;2022-12-18T00:04:37;99664.09;;;-5.49;75.29
64679;BME280;51094;53.864;27.676;2022-12-18T00:07:03;99719.88;;;-5.27;75.73
64679;BME280;51094;53.864;27.676;2022-12-18T00:09:30;99724.13;;;-5.25;75.53
64679;BME280;51094;53.864;27.676;2022-12-18T00:12:06;99730.03;;;-5.33;75.18
64679;BME280;51094;53.864;27.676;2022-12-18T00:14:41;99734.25;;;-5.32;76.00
64679;BME280;51094;53.864;27.676;2022-12-18T00:17:08;99711.44;;;-5.32;75.87
64679;BME280;51094;53.864;27.676;2022-12-18T00:19:35;99732.53;;;-5.17;76.01
64679;BME280;51094;53.864;27.676;2022-12-18T00:22:02;99633.72;;;-5.75;75.55
64679;BME280;51094;53.864;27.676;2022-12-18T00:24:29;99675.06;;;-5.60;75.12
64679;BME280;51094;53.864;27.676;2022-12-18T00:26:55;99709.75;;;-5.37;75.51
64679;BME280;51094;53.864;27.676;2022-12-18T00:29:22;99740.16;;;-5.12;75.40
64679;BME280;51094;53.864;27.676;2022-12-18T00:31:48;99744.38;;;-5.13;75.19
64679;BME280;51094;53.864;27.676;2022-12-18T00:34:16;99746.06;;;-5.01;75.39
64679;BME280;51094;53.864;27.676;2022-12-18T00:36:42;99746.06;;;-4.99;74.91
64679;BME280;51094;53.864;27.676;2022-12-18T00:39:11;99749.44;;;-5.04;74.71
64679;BME280;51094;53.864;27.676;2022-12-18T00:41:38;99740.16;;;-5.06;74.61
64679;BME280;51094;53.864;27.676;2022-12-18T00:44:24;99648.03;;;-5.83;74.45
64679;BME280;51094;53.864;27.676;2022-12-18T00:46:51;99730.03;;;-5.29;74.30
64679;BME280;51094;53.864;27.676;2022-12-18T00:49:19;99762.13;;;-5.23;74.13
64679;BME280;51094;53.864;27.676;2022-12-18T00:51:47;99710.56;;;-5.57;74.45
64679;BME280;51094;53.864;27.676;2022-12-18T00:54:14;99754.53;;;-5.25;75.05
64679;BME280;51094;53.864;27.676;2022-12-18T00:56:41;99610.91;;;-5.99;74.68
64679;BME280;51094;53.864;27.676;2022-12-18T00:59:19;99733.41;;;-5.36;73.85
64679;BME280;51094;53.864;27.676;2022-12-18T01:01:46;99731.69;;;-5.51;73.96
64679;BME280;51094;53.864;27.676;2022-12-18T01:04:13;99764.66;;;-5.39;74.36
64679;BME280;51094;53.864;27.676;2022-12-18T01:06:40;99680.16;;;-5.89;74.45
64679;BME280;51094;53.864;27.676;2022-12-18T01:09:06;99750.28;;;-5.40;74.03
64679;BME280;51094;53.864;27.676;2022-12-18T01:11:35;99763.81;;;-5.38;73.81
64679;BME280;51094;53.864;27.676;2022-12-18T01:14:03;99781.53;;;-5.39;73.95
64679;BME280;51094;53.864;27.676;2022-12-18T01:16:30;99607.47;;;-6.34;73.49
64679;BME280;51094;53.864;27.676;2022-12-18T01:18:57;99721.53;;;-5.69;73.42
64679;BME280;51094;53.864;27.676;2022-12-18T01:21:26;99702.91;;;-5.95;72.92
64679;BME280;51094;53.864;27.676;2022-12-18T01:23:54;99768.78;;;-5.77;73.15
64679;BME280;51094;53.864;27.676;2022-12-18T01:26:23;99772.19;;;-5.75;73.68
64679;BME280;51094;53.864;27.676;2022-12-18T01:28:50;99779.81;;;-5.67;73.66
64679;BME280;51094;53.864;27.676;2022-12-18T01:31:23;99773.88;;;-5.71;73.88
64679;BME280;51094;53.864;27.676;2022-12-18T01:33:51;99773.91;;;-5.68;73.17
64679;BME280;51094;53.864;27.676;2022-12-18T01:36:21;99702.00;;;-6.19;73.38
64679;BME280;51094;53.864;27.676;2022-12-18T01:38:49;99777.28;;;-5.69;73.68
64679;BME280;51094;53.864;27.676;2022-12-18T01:41:21;99784.03;;;-5.68;72.90
64679;BME280;51094;53.864;27.676;2022-12-18T01:43:53;99746.78;;;-6.10;73.16
64679;BME280;51094;53.864;27.676;2022-12-18T01:46:22;99780.59;;;-5.81;72.55
64679;BME280;51094;53.864;27.676;2022-12-18T01:48:52;99773.84;;;-5.83;73.48
64679;BME280;51094;53.864;27.676;2022-12-18T01:51:20;99744.22;;;-6.12;73.68
64679;BME280;51094;53.864;27.676;2022-12-18T01:53:47;99733.25;;;-6.15;72.47
64679;BME280;51094;53.864;27.676;2022-12-18T01:56:16;99776.34;;;-5.92;73.81
64679;BME280;51094;53.864;27.676;2022-12-18T01:59:00;99808.44;;;-5.85;73.02
64679;BME280;51094;53.864;27.676;2022-12-18T02:01:30;99736.47;;;-6.44;73.22
64679;BME280;51094;53.864;27.676;2022-12-18T02:04:22;99814.34;;;-5.85;73.59
64679;BME280;51094;53.864;27.676;2022-12-18T02:06:58;99763.56;;;-6.29;73.25
64679;BME280;51094;53.864;27.676;2022-12-18T02:09:34;99617.34;;;-6.97;73.10
64679;BME280;51094;53.864;27.676;2022-12-18T02:12:06;99821.19;;;-5.64;73.30
64679;BME280;51094;53.864;27.676;2022-12-18T02:15:07;99863.41;;;-5.64;72.83
64679;BME280;51094;53.864;27.676;2022-12-18T02:17:44;99855.81;;;-5.60;73.15
64679;BME280;51094;53.864;27.676;2022-12-18T02:20:21;99844.84;;;-5.56;72.15
64679;BME280;51094;53.864;27.676;2022-12-18T02:28:24;99820.97;;;-6.22;71.75
64679;BME280;51094;53.864;27.676;2022-12-18T02:30:56;99802.28;;;-6.39;72.21
64679;BME280;51094;53.864;27.676;2022-12-18T02:33:25;99868.41;;;-5.89;73.46
64679;BME280;51094;53.864;27.676;2022-12-18T02:35:54;99866.69;;;-5.87;72.52
64679;BME280;51094;53.864;27.676;2022-12-18T02:38:24;99882.75;;;-5.82;72.40
64679;BME280;51094;53.864;27.676;2022-12-18T02:40:54;99883.63;;;-5.75;73.07
64679;BME280;51094;53.864;27.676;2022-12-18T02:43:21;99878.59;;;-5.69;72.52
64679;BME280;51094;53.864;27.676;2022-12-18T02:45:53;99838.00;;;-5.90;72.89
64679;BME280;51094;53.864;27.676;2022-12-18T02:48:29;99930.97;;;-5.62;72.16
64679;BME280;51094;53.864;27.676;2022-12-18T02:51:27;99900.56;;;-5.68;71.72
64679;BME280;51094;53.864;27.676;2022-12-18T02:54:11;99913.25;;;-5.66;72.34
64679;BME280;51094;53.864;27.676;2022-12-18T02:56:51;99915.69;;;-5.80;71.85
64679;BME280;51094;53.864;27.676;2022-12-18T02:59:35;99913.97;;;-5.84;71.25
64679;BME280;51094;53.864;27.676;2022-12-18T03:02:24;99836.84;;;-6.44;71.72
64679;BME280;51094;53.864;27.676;2022-12-18T03:05:03;99874.97;;;-6.20;71.59
64679;BME280;51094;53.864;27.676;2022-12-18T03:07:38;99953.72;;;-5.76;71.38
64679;BME280;51094;53.864;27.676;2022-12-18T03:10:12;99934.25;;;-5.81;71.38
64679;BME280;51094;53.864;27.676;2022-12-18T03:12:46;99891.91;;;-6.11;71.05
64679;BME280;51094;53.864;27.676;2022-12-18T03:15:22;99981.53;;;-5.83;71.18
64679;BME280;51094;53.864;27.676;2022-12-18T03:18:03;99869.63;;;-6.59;70.85
64679;BME280;51094;53.864;27.676;2022-12-18T03:20:32;99966.19;;;-6.06;71.42
64679;BME280;51094;53.864;27.676;2022-12-18T03:23:09;99853.44;;;-6.80;71.72
64679;BME280;51094;53.864;27.676;2022-12-18T03:25:40;99945.00;;;-6.20;71.50
64679;BME280;51094;53.864;27.676;2022-12-18T03:28:09;99978.03;;;-6.00;71.75
64679;BME280;51094;53.864;27.676;2022-12-18T03:30:40;99980.56;;;-6.02;71.42
64679;BME280;51094;53.864;27.676;2022-12-18T03:33:11;99977.16;;;-6.12;71.23
64679;BME280;51094;53.864;27.676;2022-12-18T03:35:43;99916.94;;;-6.52;71.44
64679;BME280;51094;53.864;27.676;2022-12-18T03:38:12;99903.41;;;-6.54;71.66
64679;BME280;51094;53.864;27.676;2022-12-18T03:41:10;99944.84;;;-6.39;72.05
64679;BME280;51094;53.864;27.676;2022-12-18T03:44:15;99928.97;;;-6.22;71.02
64679;BME280;51094;53.864;27.676;2022-12-18T03:47:00;99994.16;;;-5.88;71.17
64679;BME280;51094;53.864;27.676;2022-12-18T03:49:49;99995.84;;;-5.90;71.85
64679;BME280;51094;53.864;27.676;2022-12-18T03:52:26;100031.38;;;-5.79;71.71
64679;BME280;51094;53.864;27.676;2022-12-18T03:54:55;99976.31;;;-6.09;71.60
64679;BME280;51094;53.864;27.676;2022-12-18T03:57:26;100011.88;;;-5.94;71.20
64679;BME280;51094;53.864;27.676;2022-12-18T03:59:57;100010.09;;;-6.03;70.71
64679;BME280;51094;53.864;27.676;2022-12-18T04:02:42;99947.22;;;-6.60;71.79
64679;BME280;51094;53.864;27.676;2022-12-18T04:05:15;99985.47;;;-6.25;71.82
64679;BME280;51094;53.864;27.676;2022-12-18T04:07:45;99906.59;;;-6.75;71.51
64679;BME280;51094;53.864;27.676;2022-12-18T04:10:13;100025.28;;;-6.09;71.35
64679;BME280;51094;53.864;27.676;2022-12-18T04:12:42;99943.03;;;-6.56;71.85
64679;BME280;51094;53.864;27.676;2022-12-18T04:15:12;100026.97;;;-6.08;71.63
64679;BME280;51094;53.864;27.676;2022-12-18T04:17:47;100053.97;;;-6.04;71.92
64679;BME280;51094;53.864;27.676;2022-12-18T04:20:16;100020.16;;;-6.13;71.71
64679;BME280;51094;53.864;27.676;2022-12-18T04:22:44;100038.84;;;-5.97;71.96
64679;BME280;51094;53.864;27.676;2022-12-18T04:25:13;99933.53;;;-6.79;70.95
64679;BME280;51094;53.864;27.676;2022-12-18T04:27:51;99913.94;;;-7.02;71.74
64679;BME280;51094;53.864;27.676;2022-12-18T04:30:18;99944.38;;;-6.89;71.66
64679;BME280;51094;53.864;27.676;2022-12-18T04:32:45;100058.63;;;-6.46;71.20
64679;BME280;51094;53.864;27.676;2022-12-18T04:35:18;100077.97;;;-6.56;71.40
64679;BME280;51094;53.864;27.676;2022-12-18T04:37:46;100055.63;;;-6.89;72.39
64679;BME280;51094;53.864;27.676;2022-12-18T04:40:14;100053.97;;;-6.88;72.58
64679;BME280;51094;53.864;27.676;2022-12-18T04:42:44;100076.06;;;-6.72;72.98
64679;BME280;51094;53.864;27.676;2022-12-18T04:45:11;100071.94;;;-6.65;72.49
64679;BME280;51094;53.864;27.676;2022-12-18T04:47:37;100077.13;;;-6.56;72.73
64679;BME280;51094;53.864;27.676;2022-12-18T04:50:05;100092.38;;;-6.47;72.61
64679;BME280;51094;53.864;27.676;2022-12-18T04:52:32;100098.34;;;-6.42;73.23
64679;BME280;51094;53.864;27.676;2022-12-18T04:54:58;100072.59;;;-6.80;71.78
64679;BME280;51094;53.864;27.676;2022-12-18T04:57:25;100108.16;;;-6.69;72.81
64679;BME280;51094;53.864;27.676;2022-12-18T04:59:52;100120.88;;;-6.63;73.16
64679;BME280;51094;53.864;27.676;2022-12-18T05:02:19;99990.97;;;-7.43;72.75
64679;BME280;51094;53.864;27.676;2022-12-18T05:04:46;100139.50;;;-6.57;72.18
64679;BME280;51094;53.864;27.676;2022-12-18T05:07:12;100086.06;;;-6.83;72.43
64679;BME280;51094;53.864;27.676;2022-12-18T05:09:39;100079.13;;;-7.00;72.25
64679;BME280;51094;53.864;27.676;2022-12-18T05:12:07;100138.69;;;-6.54;72.60
64679;BME280;51094;53.864;27.676;2022-12-18T05:14:37;100074.91;;;-7.00;71.88
64679;BME280;51094;53.864;27.676;2022-12-18T05:17:04;100155.44;;;-6.64;72.44
64679;BME280;51094;53.864;27.676;2022-12-18T05:19:31;100157.94;;;-6.65;72.05
64679;BME280;51094;53.864;27.676;2022-12-18T05:21:58;100081.38;;;-7.20;72.18
64679;BME280;51094;53.864;27.676;2022-12-18T05:24:24;100138.41;;;-6.77;72.84
64679;BME280;51094;53.864;27.676;2022-12-18T05:26:51;100137.56;;;-6.76;72.46
64679;BME280;51094;53.864;27.676;2022-12-18T05:29:18;100101.94;;;-6.96;72.16
64679;BME280;51094;53.864;27.676;2022-12-18T05:31:45;100168.25;;;-6.49;72.87
64679;BME280;51094;53.864;27.676;2022-12-18T05:34:12;100076.56;;;-7.02;71.63
64679;BME280;51094;53.864;27.676;2022-12-18T05:36:39;100141.91;;;-6.66;71.58
64679;BME280;51094;53.864;27.676;2022-12-18T05:39:05;100165.72;;;-6.52;72.32
64679;BME280;51094;53.864;27.676;2022-12-18T05:41:33;100186.97;;;-6.38;72.42
64679;BME280;51094;53.864;27.676;2022-12-18T05:44:00;100175.00;;;-6.52;71.42
64679;BME280;51094;53.864;27.676;2022-12-18T05:46:26;100185.91;;;-6.56;71.53
64679;BME280;51094;53.864;27.676;2022-12-18T05:48:53;100157.91;;;-6.68;71.27
64679;BME280;51094;53.864;27.676;2022-12-18T05:51:21;100210.56;;;-6.39;71.63
64679;BME280;51094;53.864;27.676;2022-12-18T05:53:48;100218.84;;;-6.53;71.53
64679;BME280;51094;53.864;27.676;2022-12-18T05:56:18;100240.59;;;-6.64;71.22
64679;BME280;51094;53.864;27.676;2022-12-18T05:58:45;100231.28;;;-6.67;71.61
64679;BME280;51094;53.864;27.676;2022-12-18T06:01:24;100208.25;;;-6.85;71.21
64679;BME280;51094;53.864;27.676;2022-12-18T06:03:53;100243.00;;;-6.74;71.46
64679;BME280;51094;53.864;27.676;2022-12-18T06:06:22;100242.31;;;-6.63;72.07
64679;BME280;51094;53.864;27.676;2022-12-18T06:08:50;100243.06;;;-6.69;71.28
64679;BME280;51094;53.864;27.676;2022-12-18T06:11:19;100258.97;;;-6.76;72.28
64679;BME280;51094;53.864;27.676;2022-12-18T06:13:49;100261.47;;;-6.78;71.48
64679;BME280;51094;53.864;27.676;2022-12-18T06:16:23;100267.28;;;-6.83;71.78
64679;BME280;51094;53.864;27.676;2022-12-18T06:18:50;100149.13;;;-7.52;71.91
64679;BME280;51094;53.864;27.676;2022-12-18T06:21:17;100275.78;;;-6.80;72.23
64679;BME280;51094;53.864;27.676;2022-12-18T06:23:44;100192.94;;;-7.50;72.20
64679;BME280;51094;53.864;27.676;2022-12-18T06:26:12;100138.69;;;-7.72;72.42
64679;BME280;51094;53.864;27.676;2022-12-18T06:28:39;100278.22;;;-6.86;72.04
64679;BME280;51094;53.864;27.676;2022-12-18T06:31:11;100288.22;;;-6.93;71.63
64679;BME280;51094;53.864;27.676;2022-12-18T06:33:43;100209.97;;;-7.40;72.46
64679;BME280;51094;53.864;27.676;2022-12-18T06:36:12;100318.56;;;-6.92;72.03
64679;BME280;51094;53.864;27.676;2022-12-18T06:38:42;100298.00;;;-7.13;71.83
64679;BME280;51094;53.864;27.676;2022-12-18T06:41:18;100286.78;;;-7.27;72.21
64679;BME280;51094;53.864;27.676;2022-12-18T06:43:46;100269.81;;;-7.34;72.45
64679;BME280;51094;53.864;27.676;2022-12-18T06:46:13;100341.31;;;-6.92;71.79
64679;BME280;51094;53.864;27.676;2022-12-18T06:48:40;100237.50;;;-7.54;71.95
64679;BME280;51094;53.864;27.676;2022-12-18T06:51:07;100274.94;;;-7.31;71.84
64679;BME280;51094;53.864;27.676;2022-12-18T06:53:34;100259.50;;;-7.48;71.77
64679;BME280;51094;53.864;27.676;2022-12-18T06:56:06;100168.56;;;-7.96;72.33
64679;BME280;51094;53.864;27.676;2022-12-18T06:58:37;100280.91;;;-7.26;71.90
64679;BME280;51094;53.864;27.676;2022-12-18T07:01:06;100339.88;;;-6.78;71.88
64679;BME280;51094;53.864;27.676;2022-12-18T07:03:34;100366.03;;;-6.77;71.25
64679;BME280;51094;53.864;27.676;2022-12-18T07:06:01;100354.91;;;-6.87;70.98
64679;BME280;51094;53.864;27.676;2022-12-18T07:08:29;100355.72;;;-6.88;70.58
64679;BME280;51094;53.864;27.676;2022-12-18T07:10:56;100373.75;;;-6.69;70.80
64679;BME280;51094;53.864;27.676;2022-12-18T07:13:23;100356.00;;;-6.71;71.46
64679;BME280;51094;53.864;27.676;2022-12-18T07:15:50;100390.94;;;-6.50;70.99
64679;BME280;51094;53.864;27.676;2022-12-18T07:18:17;100273.50;;;-7.17;70.68
64679;BME280;51094;53.864;27.676;2022-12-18T07:20:43;100309.88;;;-7.09;70.24
64679;BME280;51094;53.864;27.676;2022-12-18T07:23:11;100396.78;;;-6.54;70.95
64679;BME280;51094;53.864;27.676;2022-12-18T07:25:38;100409.28;;;-6.62;70.56
64679;BME280;51094;53.864;27.676;2022-12-18T07:28:06;100412.72;;;-6.58;69.69
64679;BME280;51094;53.864;27.676;2022-12-18T07:30:37;100298.59;;;-7.26;69.89
64679;BME280;51094;53.864;27.676;2022-12-18T07:33:04;100272.28;;;-7.39;69.74
64679;BME280;51094;53.864;27.676;2022-12-18T07:35:32;100442.25;;;-6.57;70.67
64679;BME280;51094;53.864;27.676;2022-12-18T07:37:59;100391.53;;;-6.65;70.25
64679;BME280;51094;53.864;27.676;2022-12-18T07:40:26;100430.47;;;-6.57;70.89
64679;BME280;51094;53.864;27.676;2022-12-18T07:42:54;100397.97;;;-6.82;71.87
64679;BME280;51094;53.864;27.676;2022-12-18T07:45:20;100438.94;;;-6.55;71.03
64679;BME280;51094;53.864;27.676;2022-12-18T07:47:47;100356.09;;;-7.16;70.97
64679;BME280;51094;53.864;27.676;2022-12-18T07:50:14;100430.88;;;-6.81;70.53
64679;BME280;51094;53.864;27.676;2022-12-18T07:52:41;100329.63;;;-7.36;71.34
64679;BME280;51094;53.864;27.676;2022-12-18T07:55:08;100444.78;;;-6.57;70.42
64679;BME280;51094;53.864;27.676;2022-12-18T07:57:35;100420.81;;;-6.78;70.67
64679;BME280;51094;53.864;27.676;2022-12-18T08:00:22;100426.44;;;-6.94;69.94
64679;BME280;51094;53.864;27.676;2022-12-18T08:02:49;100464.56;;;-6.82;69.97
64679;BME280;51094;53.864;27.676;2022-12-18T08:05:16;100478.13;;;-6.78;70.48
64679;BME280;51094;53.864;27.676;2022-12-18T08:07:43;100446.81;;;-6.85;69.89
64679;BME280;51094;53.864;27.676;2022-12-18T08:10:10;100462.22;;;-6.73;69.34
64679;BME280;51094;53.864;27.676;2022-12-18T08:12:37;100452.13;;;-6.71;69.06
64679;BME280;51094;53.864;27.676;2022-12-18T08:15:06;100469.75;;;-6.76;68.49
64679;BME280;51094;53.864;27.676;2022-12-18T08:17:33;100410.09;;;-7.11;68.39
64679;BME280;51094;53.864;27.676;2022-12-18T08:20:00;100465.28;;;-6.89;68.09
64679;BME280;51094;53.864;27.676;2022-12-18T08:22:27;100395.53;;;-7.24;67.58
64679;BME280;51094;53.864;27.676;2022-12-18T08:24:54;100492.56;;;-6.73;67.40
64679;BME280;51094;53.864;27.676;2022-12-18T08:27:21;100337.66;;;-7.56;67.54
64679;BME280;51094;53.864;27.676;2022-12-18T08:29:56;100495.63;;;-6.44;66.73
64679;BME280;51094;53.864;27.676;2022-12-18T08:32:25;100408.69;;;-6.97;66.22
64679;BME280;51094;53.864;27.676;2022-12-18T08:34:52;100417.81;;;-7.05;65.52
64679;BME280;51094;53.864;27.676;2022-12-18T08:37:19;100468.56;;;-6.96;65.42
64679;BME280;51094;53.864;27.676;2022-12-18T08:39:46;100514.28;;;-6.84;64.38
64679;BME280;51094;53.864;27.676;2022-12-18T08:42:12;100470.59;;;-7.20;64.91
64679;BME280;51094;53.864;27.676;2022-12-18T08:44:58;100421.09;;;-7.53;64.28
64679;BME280;51094;53.864;27.676;2022-12-18T08:47:25;100461.84;;;-7.36;64.53
64679;BME280;51094;53.864;27.676;2022-12-18T08:49:52;100417.81;;;-7.49;64.89
64679;BME280;51094;53.864;27.676;2022-12-18T08:52:19;100476.38;;;-7.26;63.42
64679;BME280;51094;53.864;27.676;2022-12-18T08:54:46;100532.59;;;-6.97;65.10
64679;BME280;51094;53.864;27.676;2022-12-18T08:57:13;100541.69;;;-7.05;63.25
64679;BME280;51094;53.864;27.676;2022-12-18T08:59:40;100500.34;;;-7.48;62.63
64679;BME280;51094;53.864;27.676;2022-12-18T09:02:11;100557.84;;;-7.38;63.61
64679;BME280;51094;53.864;27.676;2022-12-18T09:04:38;100471.63;;;-7.90;63.65
64679;BME280;51094;53.864;27.676;2022-12-18T09:07:06;100464.38;;;-7.75;63.79
64679;BME280;51094;53.864;27.676;2022-12-18T09:09:33;100560.53;;;-7.30;63.49
64679;BME280;51094;53.864;27.676;2022-12-18T09:11:59;100530.97;;;-7.32;63.43
64679;BME280;51094;53.864;27.676;2022-12-18T09:14:26;100550.78;;;-7.13;63.38
64679;BME280;51094;53.864;27.676;2022-12-18T09:16:53;100557.22;;;-7.27;62.63
64679;BME280;51094;53.864;27.676;2022-12-18T09:19:20;100568.91;;;-7.31;63.25
64679;BME280;51094;53.864;27.676;2022-12-18T09:21:47;100511.47;;;-7.77;62.51
64679;BME280;51094;53.864;27.676;2022-12-18T09:24:15;100571.47;;;-7.29;63.99
64679;BME280;51094;53.864;27.676;2022-12-18T09:26:42;100573.31;;;-7.22;63.28
64679;BME280;51094;53.864;27.676;2022-12-18T09:29:15;100513.81;;;-7.49;63.34
64679;BME280;51094;53.864;27.676;2022-12-18T09:31:44;100517.31;;;-7.42;63.08
64679;BME280;51094;53.864;27.676;2022-12-18T09:34:12;100586.41;;;-7.02;63.36
64679;BME280;51094;53.864;27.676;2022-12-18T09:36:39;100587.41;;;-6.96;61.62
64679;BME280;51094;53.864;27.676;2022-12-18T09:39:06;100423.09;;;-8.15;62.08
64679;BME280;51094;53.864;27.676;2022-12-18T09:41:40;100573.38;;;-7.21;62.67
64679;BME280;51094;53.864;27.676;2022-12-18T09:47:41;100563.63;;;-7.04;62.04
64679;BME280;51094;53.864;27.676;2022-12-18T09:50:32;100596.25;;;-6.74;61.51
64679;BME280;51094;53.864;27.676;2022-12-18T09:53:12;100520.69;;;-7.01;61.30
64679;BME280;51094;53.864;27.676;2022-12-18T09:55:45;100605.59;;;-6.72;62.28
64679;BME280;51094;53.864;27.676;2022-12-18T09:58:14;100622.66;;;-6.61;66.14
64679;BME280;51094;53.864;27.676;2022-12-18T10:00:43;100585.41;;;-7.09;67.39
64679;BME280;51094;53.864;27.676;2022-12-18T10:03:14;100553.09;;;-7.22;68.46
64679;BME280;51094;53.864;27.676;2022-12-18T10:11:21;100601.75;;;-6.95;67.89
64679;BME280;51094;53.864;27.676;2022-12-18T10:14:08;100582.69;;;-7.18;66.13
64679;BME280;51094;53.864;27.676;2022-12-18T10:16:47;100637.81;;;-7.02;65.19
64679;BME280;51094;53.864;27.676;2022-12-18T10:28:12;100543.47;;;-7.76;63.40
64679;BME280;51094;53.864;27.676;2022-12-18T10:30:41;100504.06;;;-8.06;62.71
64679;BME280;51094;53.864;27.676;2022-12-18T10:33:12;100653.69;;;-7.09;62.99
64679;BME280;51094;53.864;27.676;2022-12-18T10:35:41;100639.91;;;-7.22;62.34
64679;BME280;51094;53.864;27.676;2022-12-18T10:43:34;100655.78;;;-6.90;62.02
64679;BME280;51094;53.864;27.676;2022-12-18T10:51:32;100661.25;;;-7.09;61.79
64679;BME280;51094;53.864;27.676;2022-12-18T10:54:21;100651.69;;;-7.22;61.54
64679;BME280;51094;53.864;27.676;2022-12-18T10:56:48;100644.94;;;-7.22;61.78
64679;BME280;51094;53.864;27.676;2022-12-18T10:59:17;100670.81;;;-6.97;62.17
64679;BME280;51094;53.864;27.676;2022-12-18T11:01:57;100628.66;;;-7.34;61.44
64679;BME280;51094;53.864;27.676;2022-12-18T11:07:05;100637.34;;;-6.84;61.21
64679;BME280;51094;53.864;27.676;2022-12-18T11:09:37;100616.09;;;-6.92;61.29
64679;BME280;51094;53.864;27.676;2022-12-18T11:12:14;100687.25;;;-6.37;60.60
64679;BME280;51094;53.864;27.676;2022-12-18T11:14:45;100678.69;;;-6.43;60.86
64679;BME280;51094;53.864;27.676;2022-12-18T11:17:21;100510.75;;;-7.32;60.48
64679;BME280;51094;53.864;27.676;2022-12-18T11:20:00;100692.34;;;-5.91;60.50
64679;BME280;51094;53.864;27.676;2022-12-18T11:22:30;100697.53;;;-5.84;59.54
64679;BME280;51094;53.864;27.676;2022-12-18T11:24:59;100699.06;;;-5.93;59.68
64679;BME280;51094;53.864;27.676;2022-12-18T11:27:52;100715.78;;;-6.01;59.71
64679;BME280;51094;53.864;27.676;2022-12-18T11:33:14;100619.75;;;-6.80;59.65
64679;BME280;51094;53.864;27.676;2022-12-18T11:38:21;100713.97;;;-6.49;60.53
64679;BME280;51094;53.864;27.676;2022-12-18T11:40:56;100724.94;;;-6.52;60.35
64679;BME280;51094;53.864;27.676;2022-12-18T11:43:33;100653.25;;;-6.90;61.36
64679;BME280;51094;53.864;27.676;2022-12-18T11:46:15;100724.34;;;-6.78;60.87
64679;BME280;51094;53.864;27.676;2022-12-18T11:48:52;100728.41;;;-6.84;60.67
64679;BME280;51094;53.864;27.676;2022-12-18T11:51:27;100731.53;;;-6.96;60.81
64679;BME280;51094;53.864;27.676;2022-12-18T11:53:56;100698.28;;;-7.11;61.14
64679;BME280;51094;53.864;27.676;2022-12-18T11:56:30;100683.63;;;-7.26;61.34
64679;BME280;51094;53.864;27.676;2022-12-18T11:59:23;100740.34;;;-7.15;61.60
64679;BME280;51094;53.864;27.676;2022-12-18T12:04:56;100742.78;;;-7.18;61.74
64679;BME280;51094;53.864;27.676;2022-12-18T12:10:38;100761.25;;;-7.20;62.48
64679;BME280;51094;53.864;27.676;2022-12-18T12:19:06;100778.50;;;-7.39;63.78
64679;BME280;51094;53.864;27.676;2022-12-18T12:21:41;100775.28;;;-7.31;62.61
64679;BME280;51094;53.864;27.676;2022-12-18T12:26:56;100665.22;;;-7.89;63.50
64679;BME280;51094;53.864;27.676;2022-12-18T12:32:20;100778.47;;;-7.40;63.37
64679;BME280;51094;53.864;27.676;2022-12-18T12:35:07;100710.03;;;-7.82;62.65
64679;BME280;51094;53.864;27.676;2022-12-18T12:38:05;100802.44;;;-7.24;63.72
64679;BME280;51094;53.864;27.676;2022-12-18T12:40:39;100831.97;;;-7.23;63.95
64679;BME280;51094;53.864;27.676;2022-12-18T12:43:41;100766.03;;;-7.31;64.01
64679;BME280;51094;53.864;27.676;2022-12-18T12:46:19;100797.78;;;-7.09;63.35
64679;BME280;51094;53.864;27.676;2022-12-18T12:48:52;100752.66;;;-7.27;63.89
64679;BME280;51094;53.864;27.676;2022-12-18T12:51:24;100789.97;;;-6.84;63.28
64679;BME280;51094;53.864;27.676;2022-12-18T12:53:53;100842.97;;;-6.54;62.89
64679;BME280;51094;53.864;27.676;2022-12-18T12:56:21;100838.84;;;-6.49;63.45
64679;BME280;51094;53.864;27.676;2022-12-18T12:59:02;100832.88;;;-6.52;62.85
64679;BME280;51094;53.864;27.676;2022-12-18T13:01:59;100832.69;;;-6.60;63.08
64679;BME280;51094;53.864;27.676;2022-12-18T13:05:06;100833.53;;;-6.61;63.64
64679;BME280;51094;53.864;27.676;2022-12-18T13:18:13;100798.72;;;-7.06;63.03
64679;BME280;51094;53.864;27.676;2022-12-18T13:20:44;100749.66;;;-7.47;63.21
64679;BME280;51094;53.864;27.676;2022-12-18T13:25:58;100865.94;;;-6.79;63.98
64679;BME280;51094;53.864;27.676;2022-12-18T13:39:41;100831.72;;;-7.32;64.45
64679;BME280;51094;53.864;27.676;2022-12-18T13:44:39;100813.09;;;-7.36;64.86
64679;BME280;51094;53.864;27.676;2022-12-18T13:47:27;100843.22;;;-7.12;65.49
64679;BME280;51094;53.864;27.676;2022-12-18T13:49:57;100850.22;;;-7.02;65.44
64679;BME280;51094;53.864;27.676;2022-12-18T13:52:27;100831.00;;;-6.95;65.17
64679;BME280;51094;53.864;27.676;2022-12-18T13:54:57;100749.00;;;-7.40;65.63
64679;BME280;51094;53.864;27.676;2022-12-18T13:59:52;100892.03;;;-6.47;65.59
64679;BME280;51094;53.864;27.676;2022-12-18T14:02:27;100944.78;;;-6.29;65.66
64679;BME280;51094;53.864;27.676;2022-12-18T14:04:54;100875.97;;;-6.48;65.57
64679;BME280;51094;53.864;27.676;2022-12-18T14:07:26;100907.44;;;-6.38;65.29
64679;BME280;51094;53.864;27.676;2022-12-18T14:10:13;100888.97;;;-6.34;66.26
64679;BME280;51094;53.864;27.676;2022-12-18T14:13:08;100871.75;;;-6.49;65.66
64679;BME280;51094;53.864;27.676;2022-12-18T14:15:44;100832.66;;;-6.61;66.32
64679;BME280;51094;53.864;27.676;2022-12-18T14:18:38;100896.84;;;-6.22;66.20
64679;BME280;51094;53.864;27.676;2022-12-18T14:21:29;100923.13;;;-6.17;66.12
64679;BME280;51094;53.864;27.676;2022-12-18T14:24:14;100888.00;;;-6.39;66.28
64679;BME280;51094;53.864;27.676;2022-12-18T14:26:46;100927.59;;;-6.05;66.16
64679;BME280;51094;53.864;27.676;2022-12-18T14:29:22;100937.75;;;-6.05;66.37
64679;BME280;51094;53.864;27.676;2022-12-18T14:32:14;100850.44;;;-6.58;66.51
64679;BME280;51094;53.864;27.676;2022-12-18T14:34:52;100911.38;;;-6.15;66.22
64679;BME280;51094;53.864;27.676;2022-12-18T14:37:26;100913.53;;;-6.30;65.92